Time;durP1;ratioP1;P1;durP2;ratioP2;P2;SDS_P1;SDS_P2;PMS_P1;PMS_P2;Temp;Humidity;BMP_temperature;BMP_pressure;BME280_temperature;BME280_humidity;BME280_pressure;Samples;Min_cycle;Max_cycle;Signal;HPM_P1;HPM_P2
2023/10/07 00:02:15;;;;;;;16.20;6.40;;;;;;;7.30;100.00;99705.44;5042005;28;20072;-74
2023/10/07 00:04:41;;;;;;;20.92;7.18;;;;;;;7.27;100.00;99717.38;5041035;28;20030;-74
2023/10/07 00:07:11;;;;;;;15.68;5.75;;;;;;;7.20;100.00;99708.22;5022041;28;20018;-74
2023/10/07 00:09:39;;;;;;;15.90;5.90;;;;;;;7.16;100.00;99705.03;5037905;28;20021;-75
2023/10/07 00:12:05;;;;;;;16.17;6.57;;;;;;;7.19;100.00;99701.16;5043902;28;20495;-74
2023/10/07 00:14:30;;;;;;;16.98;6.05;;;;;;;7.21;100.00;99705.41;5042330;28;20026;-74
2023/10/07 00:16:57;;;;;;;16.35;6.32;;;;;;;7.14;100.00;99703.50;5044992;28;20039;-74
2023/10/07 00:19:22;;;;;;;15.40;6.03;;;;;;;7.03;100.00;99707.31;5044367;28;20021;-74
2023/10/07 00:22:00;;;;;;;18.77;6.35;;;;;;;6.92;100.00;99704.88;5045066;28;20032;-74
2023/10/07 00:24:35;;;;;;;13.23;6.25;;;;;;;6.98;100.00;99705.06;5040208;28;20036;-74
2023/10/07 00:27:00;;;;;;;19.77;6.55;;;;;;;6.88;100.00;99696.25;5090844;23;20017;-78
2023/10/07 00:29:25;;;;;;;19.90;6.82;;;;;;;6.88;100.00;99704.34;5027046;28;20036;-78
2023/10/07 00:31:53;;;;;;;15.25;5.70;;;;;;;6.81;100.00;99689.81;5024246;28;20049;-79
2023/10/07 00:34:31;;;;;;;18.27;6.28;;;;;;;6.73;100.00;99677.19;5024076;28;20029;-78
2023/10/07 00:36:58;;;;;;;17.10;6.80;;;;;;;6.78;100.00;99676.69;5024231;28;20026;-79
2023/10/07 00:39:23;;;;;;;17.38;6.32;;;;;;;6.76;100.00;99684.09;5023990;28;20040;-78
2023/10/07 00:41:58;;;;;;;17.17;6.63;;;;;;;6.88;100.00;99690.03;5024357;28;20096;-79
2023/10/07 00:44:29;;;;;;;18.70;6.75;;;;;;;6.77;100.00;99666.94;5023456;28;20024;-78
2023/10/07 00:49:29;;;;;;;13.98;6.22;;;;;;;6.72;100.00;99653.97;5024802;28;20028;-78
2023/10/07 00:51:57;;;;;;;15.48;6.63;;;;;;;6.80;100.00;99666.63;5025517;28;20021;-78
2023/10/07 00:54:44;;;;;;;16.95;5.80;;;;;;;6.42;100.00;99616.75;5024103;28;20258;-78
2023/10/07 00:57:14;;;;;;;14.35;6.10;;;;;;;6.67;100.00;99666.19;5010694;28;20029;-78
2023/10/07 00:59:41;;;;;;;15.50;6.15;;;;;;;6.52;100.00;99652.47;5028359;28;20072;-78
2023/10/07 01:02:14;;;;;;;13.98;6.13;;;;;;;6.61;100.00;99667.69;5024716;28;20052;-78
2023/10/07 01:04:40;;;;;;;13.98;5.03;;;;;;;6.27;100.00;99641.53;5023582;28;20036;-78
2023/10/07 01:07:06;;;;;;;13.20;5.88;;;;;;;6.42;100.00;99673.22;5023692;28;20030;-79
2023/10/07 01:09:32;;;;;;;17.42;5.60;;;;;;;6.33;100.00;99665.09;5023292;28;20022;-79
2023/10/07 01:11:57;;;;;;;13.35;5.70;;;;;;;6.20;100.00;99653.88;5022752;28;20057;-78
2023/10/07 01:14:29;;;;;;;16.85;6.38;;;;;;;6.15;100.00;99640.06;5023690;28;20036;-78
2023/10/07 01:16:56;;;;;;;13.93;5.68;;;;;;;6.15;100.00;99623.94;5008132;28;20274;-78
2023/10/07 01:19:36;;;;;;;15.23;6.40;;;;;;;6.22;100.00;99646.53;5032038;28;20026;-79
2023/10/07 01:22:12;;;;;;;14.00;6.28;;;;;;;6.24;100.00;99641.00;5023413;28;20144;-78
2023/10/07 01:27:17;;;;;;;15.38;6.40;;;;;;;6.22;100.00;99646.53;5024158;28;20017;-77
2023/10/07 01:29:43;;;;;;;16.45;5.78;;;;;;;6.22;100.00;99645.69;5005564;28;20215;-78
2023/10/07 01:32:15;;;;;;;13.75;6.40;;;;;;;5.97;100.00;99613.22;5022956;28;20014;-79
2023/10/07 01:34:47;;;;;;;13.73;5.97;;;;;;;5.91;100.00;99606.59;5003573;28;20057;-78
2023/10/07 01:37:15;;;;;;;17.98;6.68;;;;;;;5.97;100.00;99597.09;5026592;28;20068;-78
2023/10/07 01:39:43;;;;;;;16.15;5.70;;;;;;;5.87;100.00;99599.00;5022551;28;20344;-79
2023/10/07 01:42:23;;;;;;;14.30;5.85;;;;;;;6.15;100.00;99642.75;5023344;28;20101;-79
2023/10/07 01:44:55;;;;;;;13.00;6.10;;;;;;;6.22;100.00;99646.53;5022717;28;20026;-79
2023/10/07 01:47:29;;;;;;;18.83;6.32;;;;;;;6.18;100.00;99633.53;5029813;28;20018;-79
2023/10/07 01:49:56;;;;;;;13.52;5.82;;;;;;;6.21;100.00;99644.84;5026394;28;20025;-78
2023/10/07 01:52:26;;;;;;;14.10;5.88;;;;;;;6.21;100.00;99649.34;5025908;28;20326;-79
2023/10/07 01:54:54;;;;;;;15.93;6.32;;;;;;;6.07;100.00;99619.34;5022893;28;20026;-79
2023/10/07 01:57:19;;;;;;;14.85;6.07;;;;;;;6.08;100.00;99634.47;5021990;28;20192;-77
2023/10/07 01:59:45;;;;;;;18.27;6.65;;;;;;;6.04;100.00;99641.16;5021996;28;20028;-76
2023/10/07 02:02:12;;;;;;;16.48;7.03;;;;;;;6.09;100.00;99646.06;5004549;28;20292;-78
2023/10/07 02:04:37;;;;;;;16.13;7.25;;;;;;;6.04;100.00;99648.38;5022635;28;20022;-77
2023/10/07 02:07:03;;;;;;;16.85;6.43;;;;;;;5.98;100.00;99638.25;5023371;28;20087;-79
2023/10/07 02:09:42;;;;;;;12.25;5.95;;;;;;;6.12;100.00;99665.41;5021139;28;20109;-78
2023/10/07 02:12:09;;;;;;;20.17;7.10;;;;;;;6.12;100.00;99662.72;5022096;28;20021;-79
2023/10/07 02:14:34;;;;;;;17.65;6.45;;;;;;;5.92;100.00;99648.56;5022402;28;20029;-79
2023/10/07 02:17:00;;;;;;;16.33;6.28;;;;;;;5.81;100.00;99642.56;5022099;28;20059;-79
2023/10/07 02:19:29;;;;;;;14.27;6.15;;;;;;;5.86;100.00;99667.13;5021897;28;20033;-79
2023/10/07 02:22:04;;;;;;;16.25;6.43;;;;;;;5.73;100.00;99648.69;5021799;28;20026;-79
2023/10/07 02:24:30;;;;;;;16.25;6.47;;;;;;;5.67;100.00;99647.47;5020196;28;20030;-80
2023/10/07 02:27:19;;;;;;;16.60;5.28;;;;;;;5.79;100.00;99676.78;5017609;28;20026;-78
2023/10/07 02:29:51;;;;;;;15.30;5.78;;;;;;;5.86;100.00;99669.81;5020974;28;20046;-78
2023/10/07 02:32:17;;;;;;;14.25;5.47;;;;;;;5.69;100.00;99636.59;5021986;28;20075;-78
2023/10/07 02:34:52;;;;;;;14.50;6.50;;;;;;;5.77;100.00;99658.16;5003975;28;20117;-80
2023/10/07 02:37:21;;;;;;;18.90;6.53;;;;;;;5.76;100.00;99656.44;5038567;28;20022;-80
2023/10/07 02:39:50;;;;;;;13.57;5.65;;;;;;;5.77;100.00;99652.78;5021644;28;20345;-79
2023/10/07 02:42:21;;;;;;;16.90;5.70;;;;;;;5.81;100.00;99661.38;5019098;28;20032;-78
2023/10/07 02:44:51;;;;;;;17.20;6.30;;;;;;;5.80;100.00;99652.47;5002669;28;20026;-78
2023/10/07 02:47:18;;;;;;;15.05;5.65;;;;;;;5.68;100.00;99646.47;5017639;28;20051;-78
2023/10/07 02:49:49;;;;;;;16.48;6.15;;;;;;;5.88;100.00;99687.47;5021580;28;20076;-78
2023/10/07 02:52:16;;;;;;;15.88;7.00;;;;;;;5.85;100.00;99668.13;5022147;28;20485;-78
2023/10/07 02:54:43;;;;;;;18.83;6.68;;;;;;;5.74;100.00;99673.69;5021974;28;20018;-80
2023/10/07 02:57:09;;;;;;;16.00;6.60;;;;;;;5.72;100.00;99653.22;5021839;28;20022;-79
2023/10/07 02:59:36;;;;;;;17.20;6.63;;;;;;;5.74;100.00;99650.41;5021351;28;20030;-78
2023/10/07 03:05:14;;;;;;;18.35;5.95;;;;;;;5.90;100.00;99663.16;5022866;28;20040;-79
2023/10/07 03:08:01;;;;;;;14.63;5.93;;;;;;;5.77;100.00;99660.00;5002926;28;20022;-79
2023/10/07 03:10:42;;;;;;;13.88;6.35;;;;;;;5.75;100.00;99684.31;5018047;28;20034;-78
2023/10/07 03:13:07;;;;;;;14.38;7.18;;;;;;;5.70;100.00;99686.59;5004040;28;20068;-79
2023/10/07 03:17:58;;;;;;;19.13;6.57;;;;;;;5.39;100.00;99680.69;5022716;28;20255;-79
2023/10/07 03:26:05;;;;;;;17.58;6.88;;;;;;;5.33;100.00;99682.13;5023006;28;20064;-79
2023/10/07 03:28:36;;;;;;;19.75;6.55;;;;;;;5.34;100.00;99662.34;5008691;28;20062;-78
2023/10/07 03:31:11;;;;;;;14.00;6.72;;;;;;;5.26;100.00;99664.91;5025399;28;20107;-81
2023/10/07 03:33:58;;;;;;;21.25;5.97;;;;;;;5.26;100.00;99675.66;5021456;28;20021;-78
2023/10/07 03:36:31;;;;;;;12.77;5.97;;;;;;;5.30;100.00;99695.00;5023600;28;20215;-78
2023/10/07 03:39:16;;;;;;;14.63;6.68;;;;;;;5.11;100.00;99688.72;5023847;28;20022;-80
2023/10/07 03:41:52;;;;;;;19.52;6.97;;;;;;;5.11;100.00;99703.94;5020672;28;20227;-79
2023/10/07 03:44:22;;;;;;;14.27;6.13;;;;;;;4.97;100.00;99692.69;5002078;28;20022;-78
2023/10/07 03:46:49;;;;;;;14.43;6.82;;;;;;;4.89;100.00;99702.47;5016878;28;20097;-77
2023/10/07 03:49:15;;;;;;;23.55;7.35;;;;;;;4.84;100.00;99700.19;5039902;28;20022;-78
2023/10/07 03:51:41;;;;;;;15.07;6.65;;;;;;;4.91;100.00;99709.38;5025080;28;20028;-80
2023/10/07 03:54:11;;;;;;;15.48;5.90;;;;;;;4.94;100.00;99709.06;5025230;28;20079;-78
2023/10/07 03:56:37;;;;;;;17.33;6.60;;;;;;;5.05;100.00;99722.31;5025039;28;20216;-79
2023/10/07 03:59:05;;;;;;;15.02;7.30;;;;;;;5.07;100.00;99729.38;5041187;28;20101;-79
2023/10/07 04:01:32;;;;;;;14.95;6.68;;;;;;;5.08;100.00;99731.91;5025428;28;20030;-80
2023/10/07 04:03:59;;;;;;;16.70;6.63;;;;;;;4.99;100.00;99722.91;5025122;28;20040;-80
2023/10/07 04:06:31;;;;;;;15.75;6.40;;;;;;;4.92;100.00;99710.22;5014218;28;20053;-80
2023/10/07 04:09:05;;;;;;;18.02;6.55;;;;;;;5.08;100.00;99729.22;5040206;28;20014;-79
2023/10/07 04:11:38;;;;;;;14.18;5.72;;;;;;;4.95;100.00;99693.81;5034497;28;20026;-80
2023/10/07 04:14:19;;;;;;;16.42;6.20;;;;;;;4.94;100.00;99678.75;5036018;28;20022;-79
2023/10/07 04:16:52;;;;;;;15.98;6.13;;;;;;;5.13;100.00;99699.28;5026975;28;20029;-77
2023/10/07 04:21:44;;;;;;;16.63;6.15;;;;;;;4.92;100.00;99683.41;5026256;28;20022;-79
2023/10/07 04:24:10;;;;;;;13.85;6.32;;;;;;;5.14;100.00;99711.72;5023137;28;20179;-76
2023/10/07 04:26:40;;;;;;;14.52;6.38;;;;;;;5.21;100.00;99715.47;5018356;28;20021;-79
2023/10/07 04:29:14;;;;;;;18.88;6.68;;;;;;;5.13;100.00;99686.72;5025079;28;20028;-77
2023/10/07 04:31:53;;;;;;;18.85;6.35;;;;;;;5.35;100.00;99712.34;5020217;28;20033;-78
2023/10/07 04:34:20;;;;;;;15.57;6.65;;;;;;;5.29;100.00;99704.84;5026773;28;20021;-77
2023/10/07 04:39:28;;;;;;;12.35;5.85;;;;;;;5.19;100.00;99717.50;5027860;28;20036;-80
2023/10/07 04:41:59;;;;;;;14.85;5.95;;;;;;;5.00;100.00;99708.50;5039117;28;20086;-79
2023/10/07 04:50:04;;;;;;;13.85;5.78;;;;;;;4.73;100.00;99705.75;5031928;28;20017;-82
2023/10/07 04:52:31;;;;;;;14.07;5.80;;;;;;;4.68;100.00;99702.63;5026632;28;20044;-82
2023/10/07 04:55:00;;;;;;;13.45;6.22;;;;;;;4.64;100.00;99690.50;5027666;28;20089;-82
2023/10/07 05:00:37;;;;;;;15.90;6.25;;;;;;;4.77;100.00;99699.94;5030874;28;20044;-75
2023/10/07 05:03:14;;;;;;;15.15;5.65;;;;;;;4.59;100.00;99691.78;5035514;28;20282;-78
2023/10/07 05:05:43;;;;;;;17.08;6.10;;;;;;;4.55;100.00;99698.41;5027290;28;20045;-74
2023/10/07 05:08:17;;;;;;;19.27;6.40;;;;;;;4.57;100.00;99690.25;5032855;28;20033;-75
2023/10/07 05:10:43;;;;;;;14.88;7.05;;;;;;;4.61;100.00;99702.34;5023676;28;20025;-75
2023/10/07 05:13:10;;;;;;;16.05;6.40;;;;;;;4.67;100.00;99690.25;5022117;28;20022;-76
2023/10/07 05:15:41;;;;;;;16.83;6.72;;;;;;;4.74;100.00;99704.72;5018877;28;20025;-75
2023/10/07 05:18:13;;;;;;;15.65;7.07;;;;;;;4.69;100.00;99713.22;5028101;28;20052;-76
2023/10/07 05:20:39;;;;;;;14.43;6.60;;;;;;;4.72;100.00;99704.06;5017984;28;20251;-76
2023/10/07 05:23:06;;;;;;;12.73;6.03;;;;;;;4.65;100.00;99719.00;5022167;28;20093;-78
2023/10/07 05:25:35;;;;;;;14.07;5.68;;;;;;;4.58;100.00;99713.38;5015084;28;20041;-78
2023/10/07 05:28:03;;;;;;;16.48;6.10;;;;;;;4.63;100.00;99704.91;5031990;28;20032;-77
2023/10/07 05:30:32;;;;;;;12.73;5.75;;;;;;;4.55;100.00;99714.50;5023094;28;20176;-72
2023/10/07 05:32:59;;;;;;;15.43;5.85;;;;;;;4.70;100.00;99730.16;5024172;28;20059;-78
2023/10/07 05:35:26;;;;;;;13.85;6.28;;;;;;;4.71;100.00;99719.28;5022819;28;20028;-78
2023/10/07 05:37:51;;;;;;;14.43;7.00;;;;;;;4.75;100.00;99730.56;5019614;28;20022;-76
2023/10/07 05:40:19;;;;;;;17.17;6.70;;;;;;;4.74;100.00;99719.00;5023148;28;20106;-76
2023/10/07 05:42:45;;;;;;;13.18;6.20;;;;;;;4.72;100.00;99717.47;5024084;28;20112;-85
2023/10/07 05:45:14;;;;;;;15.30;6.57;;;;;;;4.83;100.00;99720.81;5022810;28;20353;-79
2023/10/07 05:47:39;;;;;;;14.40;7.10;;;;;;;4.61;100.00;99676.41;5024315;28;20021;-78
2023/10/07 05:50:05;;;;;;;16.50;6.40;;;;;;;4.96;100.00;99704.41;5022970;28;20125;-78
2023/10/07 05:52:32;;;;;;;18.90;6.60;;;;;;;5.09;100.00;99696.06;5022876;28;20030;-79
2023/10/07 05:54:57;;;;;;;13.32;6.00;;;;;;;5.26;100.00;99678.31;5023817;28;20022;-78
2023/10/07 05:57:25;;;;;;;14.90;6.38;;;;;;;5.61;100.00;99691.03;5023436;28;20101;-78
2023/10/07 05:59:51;;;;;;;14.50;5.70;;;;;;;5.83;100.00;99680.88;5023428;28;20101;-79
2023/10/07 06:02:17;;;;;;;17.15;6.60;;;;;;;6.35;100.00;99702.56;5010511;28;20022;-79
2023/10/07 06:04:44;;;;;;;12.20;5.63;;;;;;;7.32;100.00;99698.88;5022704;28;20393;-80
2023/10/07 06:07:12;;;;;;;17.45;5.18;;;;;;;9.14;100.00;99650.41;5038661;28;20033;-80
2023/10/07 06:09:41;;;;;;;10.15;4.75;;;;;;;10.95;100.00;99626.56;5022137;28;20067;-78
2023/10/07 06:12:07;;;;;;;12.57;4.90;;;;;;;12.77;100.00;99623.84;5019902;28;20026;-79
2023/10/07 06:14:32;;;;;;;10.00;4.80;;;;;;;13.99;100.00;99605.06;5021673;28;20052;-80
2023/10/07 06:16:57;;;;;;;13.60;4.78;;;;;;;15.17;100.00;99625.38;5036718;28;20017;-78
2023/10/07 06:19:23;;;;;;;11.35;4.97;;;;;;;15.80;100.00;99616.59;5022576;28;20218;-79
2023/10/07 06:21:51;;;;;;;12.05;4.90;;;;;;;15.96;100.00;99613.38;5039444;28;20028;-78
2023/10/07 06:24:23;;;;;;;9.95;4.80;;;;;;;15.39;100.00;99626.81;5020977;28;20323;-73
2023/10/07 06:26:49;;;;;;;14.43;5.18;;;;;;;13.33;100.00;99631.97;5013647;28;20049;-77
2023/10/07 06:29:18;;;;;;;11.40;5.03;;;;;;;11.76;100.00;99643.75;5021734;28;20025;-75
2023/10/07 06:31:49;;;;;;;11.60;4.97;;;;;;;11.12;100.00;99662.47;5015146;28;20021;-76
2023/10/07 06:34:15;;;;;;;11.73;5.47;;;;;;;10.93;100.00;99661.16;5019976;28;20056;-77
2023/10/07 06:36:40;;;;;;;11.88;5.20;;;;;;;12.66;100.00;99674.13;5012487;28;20029;-75
2023/10/07 06:39:07;;;;;;;13.75;5.43;;;;;;;15.21;100.00;99659.34;5021881;28;20072;-75
2023/10/07 06:41:34;;;;;;;11.50;5.28;;;;;;;16.90;100.00;99660.00;5022236;28;20344;-76
2023/10/07 06:44:02;;;;;;;14.63;5.13;;;;;;;17.57;100.00;99649.22;5021040;28;20077;-80
2023/10/07 06:46:29;;;;;;;16.13;5.53;;;;;;;18.07;87.79;99657.25;5013896;28;20322;-75
2023/10/07 06:48:55;;;;;;;15.77;4.90;;;;;;;17.31;89.60;99656.66;5021336;28;20045;-74
2023/10/07 06:51:21;;;;;;;12.68;5.43;;;;;;;15.00;100.00;99665.88;5022690;28;20037;-75
2023/10/07 06:53:46;;;;;;;9.40;5.10;;;;;;;14.62;100.00;99644.75;5019251;28;20330;-75
2023/10/07 06:56:21;;;;;;;10.50;5.03;;;;;;;16.94;100.00;99666.69;5018539;28;20026;-75
2023/10/07 06:58:53;;;;;;;9.88;5.05;;;;;;;19.28;87.94;99660.63;5021974;28;20049;-75
2023/10/07 07:04:10;;;;;;;10.93;5.32;;;;;;;23.38;65.00;99684.16;5020495;28;20219;-77
2023/10/07 07:06:42;;;;;;;11.10;5.03;;;;;;;22.90;63.30;99673.03;5022408;28;20025;-76
2023/10/07 07:09:41;;;;;;;11.95;5.28;;;;;;;20.09;67.83;99686.28;5020295;28;20014;-76
2023/10/07 07:11:57;;;;;;;15.57;5.55;;;;;;;17.25;87.69;99693.13;5020680;28;20049;-76
2023/10/07 07:14:28;;;;;;;14.00;5.80;;;;;;;14.87;100.00;99685.81;5016672;28;20311;-76
2023/10/07 07:16:54;;;;;;;10.30;5.65;;;;;;;14.01;100.00;99676.41;5021266;28;20025;-78
2023/10/07 07:19:23;;;;;;;11.82;5.85;;;;;;;13.40;100.00;99679.06;5021150;28;20032;-78
2023/10/07 07:21:49;;;;;;;12.70;6.30;;;;;;;13.13;100.00;99681.59;5024959;28;20311;-78
2023/10/07 07:24:15;;;;;;;13.02;5.88;;;;;;;12.35;100.00;99674.44;5023634;28;20106;-78
2023/10/07 07:26:50;;;;;;;10.98;5.38;;;;;;;12.27;100.00;99680.84;5020222;28;20026;-78
2023/10/07 07:29:17;;;;;;;11.85;4.90;;;;;;;12.38;100.00;99671.34;5030458;28;20018;-78
2023/10/07 07:31:44;;;;;;;14.68;5.40;;;;;;;12.63;100.00;99686.19;5022901;28;20354;-78
2023/10/07 07:34:26;;;;;;;15.07;5.70;;;;;;;12.01;100.00;99641.53;5024489;28;20113;-78
2023/10/07 07:37:04;;;;;;;14.48;5.28;;;;;;;12.01;100.00;99695.78;5027268;28;20059;-78
2023/10/07 07:39:32;;;;;;;11.93;5.13;;;;;;;11.98;100.00;99693.44;5026399;28;20048;-80
2023/10/07 07:42:15;;;;;;;18.33;5.20;;;;;;;11.81;100.00;99660.25;5031291;28;20093;-83
2023/10/07 07:44:55;;;;;;;10.63;5.28;;;;;;;12.27;100.00;99661.84;5031366;28;20037;-79
2023/10/07 07:47:21;;;;;;;16.73;5.57;;;;;;;14.14;100.00;99691.94;5024592;28;20029;-78
2023/10/07 07:49:47;;;;;;;10.38;5.10;;;;;;;17.47;100.00;99682.59;5022801;28;20026;-81
2023/10/07 07:52:15;;;;;;;10.40;4.78;;;;;;;17.74;100.00;99686.72;5027388;28;20017;-79
2023/10/07 07:54:43;;;;;;;12.27;4.95;;;;;;;21.91;89.66;99674.16;5043755;28;20227;-80
2023/10/07 07:57:09;;;;;;;16.35;4.70;;;;;;;24.35;66.40;99653.41;5026347;28;20025;-78
2023/10/07 07:59:34;;;;;;;10.95;4.50;;;;;;;26.06;60.61;99656.56;5025369;28;20041;-74
2023/10/07 08:02:12;;;;;;;8.00;4.30;;;;;;;25.69;58.65;99677.19;5021928;28;20113;-75
2023/10/07 08:04:50;;;;;;;7.47;4.05;;;;;;;26.86;53.87;99673.84;5014142;28;20260;-73
2023/10/07 08:09:50;;;;;;;8.75;4.30;;;;;;;24.61;57.05;99679.19;5026309;28;20030;-73
2023/10/07 08:12:30;;;;;;;11.50;4.68;;;;;;;22.37;64.24;99674.72;5024825;28;20041;-73
2023/10/07 08:14:58;;;;;;;9.18;4.60;;;;;;;20.67;72.44;99684.41;5024623;28;20049;-75
2023/10/07 08:17:27;;;;;;;10.37;4.80;;;;;;;19.99;82.26;99707.22;5025909;28;20021;-75
2023/10/07 08:19:57;;;;;;;11.43;4.90;;;;;;;19.14;96.66;99694.88;5026450;28;20022;-79
2023/10/07 08:22:23;;;;;;;12.00;5.15;;;;;;;18.30;100.00;99684.75;5026408;28;20025;-78
2023/10/07 08:24:49;;;;;;;24.70;8.60;;;;;;;17.42;100.00;99680.56;5027351;28;20072;-78
2023/10/07 08:30:06;;;;;;;15.30;5.78;;;;;;;16.61;100.00;99686.88;5019878;28;20029;-75
2023/10/07 08:32:41;;;;;;;12.23;5.20;;;;;;;16.10;100.00;99709.69;5023576;28;20022;-75
2023/10/07 08:35:18;;;;;;;11.68;5.43;;;;;;;15.74;100.00;99706.44;5020720;28;20022;-71
2023/10/07 08:37:47;;;;;;;10.30;4.55;;;;;;;15.82;100.00;99712.72;5033405;28;20011;-74
2023/10/07 08:40:40;;;;;;;10.63;4.68;;;;;;;15.74;100.00;99700.97;5037351;28;20045;-74
2023/10/07 08:43:14;;;;;;;11.75;4.63;;;;;;;15.82;100.00;99702.63;5039180;28;20100;-75
2023/10/07 08:45:39;;;;;;;10.10;4.30;;;;;;;15.90;100.00;99686.06;5030744;28;20014;-73
2023/10/07 08:48:16;;;;;;;11.65;4.68;;;;;;;16.24;100.00;99697.63;5033951;28;20032;-73
2023/10/07 08:50:59;;;;;;;12.13;4.80;;;;;;;16.66;100.00;99692.53;5032926;28;20057;-74
2023/10/07 08:53:26;;;;;;;13.75;4.18;;;;;;;17.31;100.00;99692.22;5053803;28;20018;-73
2023/10/07 08:56:00;;;;;;;8.52;4.32;;;;;;;17.41;100.00;99698.00;5032946;28;20315;-73
2023/10/07 08:58:29;;;;;;;11.10;4.97;;;;;;;17.31;100.00;99684.84;5036725;28;20089;-73
2023/10/07 09:00:56;;;;;;;11.73;4.90;;;;;;;17.84;100.00;99688.94;5038347;28;20025;-73
2023/10/07 09:03:26;;;;;;;11.10;4.53;;;;;;;17.71;100.00;99683.56;5034810;28;20034;-74
2023/10/07 09:05:52;;;;;;;9.63;4.22;;;;;;;17.25;100.00;99674.00;5036696;28;20034;-73
2023/10/07 09:08:22;;;;;;;12.02;4.80;;;;;;;17.02;100.00;99688.28;5036476;28;20098;-74
2023/10/07 09:10:49;;;;;;;11.60;4.55;;;;;;;16.96;100.00;99665.41;5032242;28;20022;-76
2023/10/07 09:13:28;;;;;;;13.90;4.90;;;;;;;16.97;100.00;99671.72;5027095;28;20026;-74
2023/10/07 09:15:55;;;;;;;10.30;4.63;;;;;;;17.34;100.00;99699.13;5025173;28;20018;-75
2023/10/07 09:18:28;;;;;;;9.60;4.18;;;;;;;17.38;100.00;99700.38;5026842;28;20144;-76
2023/10/07 09:20:56;;;;;;;12.30;4.90;;;;;;;17.39;100.00;99682.88;5024710;28;20085;-75
2023/10/07 09:23:23;;;;;;;10.32;3.88;;;;;;;17.55;100.00;99682.28;5025919;28;20101;-75
2023/10/07 09:25:52;;;;;;;8.63;4.07;;;;;;;17.03;100.00;99692.72;5026925;28;20029;-75
2023/10/07 09:28:30;;;;;;;10.65;4.40;;;;;;;16.98;100.00;99689.81;5024992;28;20033;-75
2023/10/07 09:30:58;;;;;;;11.05;4.28;;;;;;;17.22;100.00;99699.88;5023926;28;20108;-75
2023/10/07 09:33:35;;;;;;;13.02;4.15;;;;;;;17.23;100.00;99709.75;5026475;28;20037;-75
2023/10/07 09:38:48;;;;;;;10.05;4.35;;;;;;;17.55;100.00;99700.59;5024222;28;20090;-76
2023/10/07 09:43:51;;;;;;;9.68;4.90;;;;;;;17.92;100.00;99706.94;5025152;28;20033;-75
2023/10/07 09:46:24;;;;;;;10.27;4.70;;;;;;;17.79;100.00;99720.75;5024176;28;20018;-76
2023/10/07 09:48:51;;;;;;;12.40;4.63;;;;;;;17.71;100.00;99722.75;5022577;28;20093;-75
2023/10/07 09:51:28;;;;;;;10.57;4.68;;;;;;;18.05;100.00;99723.25;5027618;28;20097;-76
2023/10/07 09:54:02;;;;;;;12.82;4.93;;;;;;;18.27;100.00;99709.88;5026094;28;20315;-75
2023/10/07 09:57:19;;;;;;;12.07;5.05;;;;;;;18.42;100.00;99723.16;5024944;28;20101;-75
2023/10/07 10:01:03;;;;;;;11.75;4.63;;;;;;;17.98;100.00;99711.53;5035893;28;20029;-76
2023/10/07 10:03:22;;;;;;;10.43;4.63;;;;;;;18.32;100.00;99711.94;5011337;28;20096;-76
2023/10/07 10:06:25;;;;;;;10.15;3.92;;;;;;;18.97;100.00;99705.72;5018549;28;20018;-76
2023/10/07 10:08:58;;;;;;;9.40;4.53;;;;;;;19.37;100.00;99707.78;5021876;28;20032;-76
2023/10/07 10:11:30;;;;;;;13.02;4.65;;;;;;;19.29;100.00;99694.41;5022843;28;20030;-76
2023/10/07 10:14:16;;;;;;;9.23;4.32;;;;;;;19.46;100.00;99689.84;5023062;28;20034;-75
2023/10/07 10:16:45;;;;;;;12.27;3.78;;;;;;;19.42;100.00;99711.47;5022681;28;20026;-75
2023/10/07 10:19:22;;;;;;;9.88;4.13;;;;;;;19.68;100.00;99690.13;5023608;28;20025;-76
2023/10/07 10:21:48;;;;;;;11.73;3.83;;;;;;;19.99;100.00;99696.22;5022508;28;20021;-76
2023/10/07 10:24:18;;;;;;;10.88;3.83;;;;;;;20.00;100.00;99707.00;5025384;28;20087;-76
2023/10/07 10:26:44;;;;;;;11.52;3.97;;;;;;;20.32;100.00;99698.28;5023678;28;20029;-76
2023/10/07 10:29:16;;;;;;;9.35;3.85;;;;;;;20.12;100.00;99715.19;5022179;28;20096;-75
2023/10/07 10:31:52;;;;;;;7.03;3.30;;;;;;;19.74;100.00;99694.63;5020911;28;20386;-75
2023/10/07 10:34:20;;;;;;;10.27;3.50;;;;;;;19.73;100.00;99684.72;5024334;28;20104;-76
2023/10/07 10:36:49;;;;;;;13.15;3.45;;;;;;;20.95;99.80;99701.91;5024018;28;20017;-76
2023/10/07 10:39:25;;;;;;;8.48;3.25;;;;;;;23.90;78.90;99696.38;5024538;28;20022;-75
2023/10/07 10:41:51;;;;;;;12.52;4.57;;;;;;;27.30;64.91;99684.03;5022405;28;20026;-76
2023/10/07 10:44:17;;;;;;;13.70;3.53;;;;;;;27.71;57.71;99683.59;5023322;28;20025;-75
2023/10/07 10:46:45;;;;;;;7.20;3.22;;;;;;;26.83;56.15;99696.63;5024343;28;20025;-76
2023/10/07 10:49:16;;;;;;;10.50;3.63;;;;;;;27.07;58.14;99679.22;5030421;28;20024;-76
2023/10/07 10:51:50;;;;;;;8.50;3.50;;;;;;;25.60;59.31;99690.81;5019245;28;20105;-77
2023/10/07 10:54:19;;;;;;;14.43;3.67;;;;;;;24.87;61.13;99672.56;5022803;28;20013;-74
2023/10/07 10:56:57;;;;;;;10.98;3.45;;;;;;;23.14;66.23;99690.09;5023637;28;20029;-75
2023/10/07 10:59:43;;;;;;;12.88;3.92;;;;;;;22.41;70.52;99686.06;5021150;28;20335;-72
2023/10/07 11:02:17;;;;;;;7.13;3.28;;;;;;;21.93;71.12;99680.25;5032478;28;20022;-74
2023/10/07 11:04:45;;;;;;;9.15;3.20;;;;;;;22.00;72.67;99658.00;5020196;28;20101;-75
2023/10/07 11:07:10;;;;;;;7.97;3.05;;;;;;;21.63;75.96;99648.47;5020844;28;20068;-75
2023/10/07 11:09:38;;;;;;;7.10;3.00;;;;;;;22.32;74.85;99663.63;5022652;28;20319;-75
2023/10/07 11:12:09;;;;;;;7.70;3.08;;;;;;;22.51;72.85;99661.38;5020279;28;20063;-75
2023/10/07 11:14:36;;;;;;;9.80;3.67;;;;;;;22.34;72.84;99666.97;5027002;28;20255;-76
2023/10/07 11:17:03;;;;;;;9.10;3.55;;;;;;;21.86;74.44;99647.38;5018628;28;20025;-76
2023/10/07 11:19:30;;;;;;;7.25;2.92;;;;;;;21.34;76.16;99622.16;5023190;28;20030;-76
2023/10/07 11:21:56;;;;;;;9.43;3.00;;;;;;;21.58;78.05;99642.88;5018334;28;20049;-76
2023/10/07 11:24:26;;;;;;;7.85;3.63;;;;;;;20.98;81.21;99651.88;5022651;28;20018;-76
2023/10/07 11:26:56;;;;;;;6.47;2.88;;;;;;;20.97;83.01;99655.75;5040206;28;20197;-75
2023/10/07 11:29:22;;;;;;;14.32;3.35;;;;;;;21.24;83.63;99644.84;5022913;28;20315;-74
2023/10/07 11:31:58;;;;;;;9.88;3.20;;;;;;;21.62;82.72;99643.22;5023498;28;20385;-75
2023/10/07 11:34:37;;;;;;;7.07;2.85;;;;;;;21.26;84.37;99664.72;5022594;28;20096;-75
2023/10/07 11:37:13;;;;;;;8.75;3.38;;;;;;;21.57;84.99;99652.25;5018376;28;20022;-75
2023/10/07 11:39:45;;;;;;;10.32;3.55;;;;;;;21.60;83.04;99664.69;5014740;28;20021;-75
2023/10/07 11:42:21;;;;;;;13.35;3.38;;;;;;;21.82;81.25;99667.44;5022448;28;20018;-76
2023/10/07 11:44:55;;;;;;;8.38;3.13;;;;;;;21.86;80.57;99665.84;5015353;28;20033;-76
2023/10/07 11:47:23;;;;;;;9.43;2.80;;;;;;;22.08;79.98;99666.66;5024870;28;20228;-77
2023/10/07 11:49:48;;;;;;;7.18;2.95;;;;;;;21.88;77.43;99669.19;5019290;28;20040;-76
2023/10/07 11:52:15;;;;;;;8.07;3.20;;;;;;;22.04;79.47;99659.19;5024383;28;20022;-76
2023/10/07 11:54:42;;;;;;;8.05;3.05;;;;;;;21.69;79.10;99654.88;5010248;28;20242;-76
2023/10/07 11:57:09;;;;;;;11.57;3.20;;;;;;;21.75;79.54;99645.59;5019552;28;20319;-76
2023/10/07 11:59:36;;;;;;;8.10;2.58;;;;;;;21.02;82.98;99639.31;5022473;28;20033;-77
2023/10/07 12:02:09;;;;;;;9.02;3.03;;;;;;;21.51;84.65;99650.53;5025161;28;20056;-78
2023/10/07 12:04:38;;;;;;;8.30;3.22;;;;;;;22.22;80.00;99644.25;5022095;28;20038;-75
2023/10/07 12:07:03;;;;;;;9.05;3.65;;;;;;;22.52;78.23;99650.06;5017628;28;20047;-76
2023/10/07 12:09:29;;;;;;;7.32;3.10;;;;;;;22.80;76.92;99644.53;5024237;28;20326;-76
2023/10/07 12:11:54;;;;;;;7.32;2.72;;;;;;;22.54;77.09;99652.56;5024718;28;20311;-74
2023/10/07 12:14:20;;;;;;;7.00;2.50;;;;;;;22.25;75.67;99660.28;5020744;28;20026;-75
2023/10/07 12:16:46;;;;;;;8.52;2.97;;;;;;;21.40;77.85;99651.44;5025938;28;20108;-75
2023/10/07 12:19:11;;;;;;;7.15;2.72;;;;;;;21.50;79.78;99642.50;5021713;28;20109;-75
2023/10/07 12:21:39;;;;;;;8.27;2.88;;;;;;;22.43;79.44;99643.38;5025218;28;20025;-76
2023/10/07 12:24:06;;;;;;;9.27;3.00;;;;;;;22.73;75.81;99653.00;5025229;28;20049;-75